< < Back
Terminal Aerodrome Forecast


Current Version              Previous Versions:   1  2  3  4  5  6  7  8  9  

Terminal Aerodrome Forecast

299
FTUS42 KCHS 272331
TAFSAV
TAF
KSAV 272331Z 2800/2824 29011G17KT P6SM SCT030 BKN150
     FM280400 30009KT P6SM FEW040
     FM281800 29012G19KT P6SM FEW120=

Latest METAR

631
SAUS80 KWBC 280000
MTRSAV
METAR KSAV 272353Z 30012KT 10SM FEW029 SCT050 BKN150 16/04 A2977 RMK AO2
SLP078 60018 T01610039 10228 20161 53024


USA.gov is the U.S. government's official web portal to all federal, state and local government web resources and services.